Airfield :
LOGIN :

Register | Disclaimer

   EN    FR    IT 

 










Legend :    VFR   Marginal VFR   IFR   Intensive IFR   Very Intensive IFR
Visi :
Ceiling :
>= 8 km
>= 3000ft
5 to 8 km
1000 to 3000 ft
1500m to 5 km
500 to 1000 ft
800 to 1500m
200 to 500 ft
< 800m
< 200 ft
Symbols :   Thunderstorms  Fog  Heavy snow  Heavy precipitations  Wind > 20 kt
SIGMETs :     Misc.  Thunderstorms  Icing  Turbulence  Mountain Waves  Volcanic Ashes






- Airport Elevation : 1504 ft
- IATA code : PNA


LEPP - Noain Pamplona

CURRENT METAR :
  • 082030Z 36007KT 9999 SCT035 BKN041 09/07 Q1024

EXPIRED METARs :
  • 082000Z 34009KT 9999 SCT035 BKN044 09/07 Q1025
  • 081930Z 34008KT 9999 FEW032 BKN042 08/08 Q1025
  • 081900Z VRB03KT 4700 BR SCT001 BKN022 OVC034 06/06 Q1024
  • 081837Z 00000KT 2900 -RA BR SCT002 BKN017 OVC022 06/06 Q1024
  • 081830Z 00000KT 3100 -RA BR SCT001 OVC016 OVC021 06/06 Q1024 RERA
  • 081800Z VRB02KT 1700 RA BR BKN012 OVC021 06/06 Q1023

TAF TAF LEPP
Valid from the 08 at 21:00 until the 09 at 21:00 UTC


082000Z 0821/0921 VRB05KT 8000 SCT025 TX09/0913Z TN03/0901Z
TEMPO 0821/0824 35010KT
PROB40
TEMPO 0823/0903 3000 BCFG
BECMG 0908/0910 30010KT
TEMPO 0910/0916 30015G25KT
PROB40
TEMPO 0912/0915 30020G30KT



MET'MAP, your aeronautical weather chart ! - Copyright ORBIFLY December 2007 - Disclaimer

ORBIFLY MET'MAP TEAM :

Programming & Development : Alexandra Zaïnal
Concept & original design : Baudouin d'Aumeries
Assistance for programming : Marc-Olivier Méhu
Technical & hardware support : Manuel Goepfert

Contact : metmap@orbifly.com




SOURCES & CREDITS :

   NOAA